createdAt,value
2024-04-23T00:01:20.746Z,5.82
2024-04-23T00:03:47.800Z,6.00
2024-04-23T00:06:14.783Z,5.85
2024-04-23T00:08:41.801Z,6.28
2024-04-23T00:11:08.933Z,6.03
2024-04-23T00:13:36.055Z,5.90
2024-04-23T00:16:03.072Z,6.35
2024-04-23T00:18:30.132Z,6.38
2024-04-23T00:20:57.603Z,6.65
2024-04-23T00:23:24.734Z,6.00
2024-04-23T00:25:52.178Z,6.80
2024-04-23T00:28:19.218Z,6.43
2024-04-23T00:30:46.343Z,6.25
2024-04-23T00:33:13.479Z,6.35
2024-04-23T00:35:40.528Z,5.95
2024-04-23T00:38:07.532Z,6.50
2024-04-23T00:40:34.590Z,6.10
2024-04-23T00:43:01.600Z,6.00
2024-04-23T00:45:38.204Z,6.03
2024-04-23T00:48:05.709Z,6.60
2024-04-23T00:50:32.986Z,6.47
2024-04-23T00:53:00.341Z,6.50
2024-04-23T00:55:28.579Z,6.35
2024-04-23T00:57:55.731Z,6.32
2024-04-23T01:00:22.946Z,6.18
2024-04-23T01:02:50.158Z,5.97
2024-04-23T01:05:17.220Z,5.93
2024-04-23T01:07:44.691Z,6.25
2024-04-23T01:10:11.783Z,6.55
2024-04-23T01:12:38.895Z,6.03
2024-04-23T01:15:07.737Z,6.60
2024-04-23T01:17:35.106Z,5.88
2024-04-23T01:20:07.376Z,5.47
2024-04-23T01:22:53.255Z,6.15
2024-04-23T01:25:23.452Z,6.35
2024-04-23T01:30:19.333Z,6.20
2024-04-23T01:32:49.164Z,6.53
2024-04-23T01:35:17.505Z,6.20
2024-04-23T01:37:51.741Z,7.03
2024-04-23T01:40:20.105Z,6.57
2024-04-23T01:42:48.649Z,6.93
2024-04-23T01:45:18.341Z,7.28
2024-04-23T01:47:46.470Z,7.03
2024-04-23T01:50:14.366Z,7.30
2024-04-23T01:52:41.556Z,8.10
2024-04-23T01:55:10.027Z,7.78
2024-04-23T01:57:37.868Z,7.45
2024-04-23T02:00:08.519Z,8.00
2024-04-23T02:02:38.156Z,8.15
2024-04-23T02:05:08.253Z,7.85
2024-04-23T02:10:03.900Z,7.60
2024-04-23T02:12:30.917Z,8.35
2024-04-23T02:14:58.097Z,8.02
2024-04-23T02:17:25.146Z,8.63
2024-04-23T02:19:52.195Z,7.75
2024-04-23T02:22:20.724Z,7.93
2024-04-23T02:24:47.761Z,8.25
2024-04-23T02:27:14.844Z,7.60
2024-04-23T02:29:42.018Z,7.93
2024-04-23T02:32:09.082Z,8.00
2024-04-23T02:34:36.159Z,8.70
2024-04-23T02:37:03.577Z,8.02
2024-04-23T02:39:30.564Z,8.07
2024-04-23T02:41:57.601Z,8.18
2024-04-23T02:44:24.624Z,8.25
2024-04-23T02:46:51.722Z,8.45
2024-04-23T02:49:18.773Z,8.45
2024-04-23T02:51:56.639Z,8.60
2024-04-23T02:54:24.072Z,8.77
2024-04-23T02:56:52.518Z,8.55
2024-04-23T02:59:20.438Z,8.73
2024-04-23T03:01:47.638Z,8.48
2024-04-23T03:04:14.859Z,8.90
2024-04-23T03:06:41.881Z,9.15
2024-04-23T03:09:08.918Z,8.55
2024-04-23T03:11:35.927Z,8.82
2024-04-23T03:14:03.044Z,8.95
2024-04-23T03:16:30.164Z,9.00
2024-04-23T03:18:57.162Z,9.25
2024-04-23T03:21:24.177Z,8.90
2024-04-23T03:23:51.160Z,8.68
2024-04-23T03:26:18.161Z,8.35
2024-04-23T03:28:45.168Z,8.77
2024-04-23T03:31:12.339Z,9.35
2024-04-23T03:33:39.401Z,8.57
2024-04-23T03:36:06.943Z,8.85
2024-04-23T03:38:33.962Z,9.25
2024-04-23T03:41:01.118Z,8.82
2024-04-23T03:43:28.249Z,9.18
2024-04-23T03:45:55.300Z,8.82
2024-04-23T03:48:22.332Z,9.00
2024-04-23T03:50:49.362Z,8.85
2024-04-23T03:53:16.408Z,9.73
2024-04-23T03:55:43.458Z,9.30
2024-04-23T03:58:10.487Z,9.60
2024-04-23T04:00:37.539Z,9.55
2024-04-23T04:03:23.077Z,9.10
2024-04-23T04:06:05.336Z,8.93
2024-04-23T04:08:32.924Z,9.07
2024-04-23T04:11:00.352Z,9.80
2024-04-23T04:13:27.756Z,10.15
2024-04-23T04:15:54.802Z,9.55
2024-04-23T04:18:21.874Z,10.07
2024-04-23T04:20:49.109Z,10.43
2024-04-23T04:23:16.130Z,10.07
2024-04-23T04:25:43.282Z,9.40
2024-04-23T04:28:10.313Z,10.35
2024-04-23T04:30:37.432Z,10.50
2024-04-23T04:33:05.069Z,10.38
2024-04-23T04:35:32.187Z,9.90
2024-04-23T04:37:59.310Z,10.30
2024-04-23T04:40:26.390Z,10.85
2024-04-23T04:42:53.831Z,10.23
2024-04-23T04:45:21.036Z,10.27
2024-04-23T04:47:50.819Z,10.30
2024-04-23T04:50:19.113Z,10.40
2024-04-23T04:52:46.596Z,10.25
2024-04-23T04:55:13.704Z,10.60
2024-04-23T04:57:40.687Z,10.32
2024-04-23T05:00:08.393Z,10.45
2024-04-23T05:02:35.522Z,10.13
2024-04-23T05:05:02.688Z,10.20
2024-04-23T05:07:29.850Z,10.48
2024-04-23T05:09:56.900Z,10.70
2024-04-23T05:12:23.968Z,9.95
2024-04-23T05:14:50.998Z,10.95
2024-04-23T05:17:18.034Z,11.00
2024-04-23T05:19:46.155Z,9.85
2024-04-23T05:22:13.613Z,9.77
2024-04-23T05:24:40.867Z,10.15
2024-04-23T05:27:07.876Z,10.13
2024-04-23T05:29:34.862Z,10.15
2024-04-23T05:32:20.951Z,10.60
2024-04-23T05:34:48.443Z,10.38
2024-04-23T05:37:15.604Z,10.07
2024-04-23T05:39:42.751Z,9.75
2024-04-23T05:42:09.800Z,10.80
2024-04-23T05:44:36.803Z,10.60
2024-04-23T05:47:03.937Z,10.13
2024-04-23T05:50:08.737Z,10.50
2024-04-23T05:53:13.346Z,10.27
2024-04-23T05:55:44.712Z,11.27
2024-04-23T05:58:13.626Z,10.65
2024-04-23T06:00:40.806Z,10.73
2024-04-23T06:03:07.989Z,11.23
2024-04-23T06:05:35.163Z,10.18
2024-04-23T06:08:02.469Z,11.05
2024-04-23T06:10:29.604Z,10.90
2024-04-23T06:12:56.684Z,10.80
2024-04-23T06:15:24.051Z,11.10
2024-04-23T06:17:51.107Z,11.10
2024-04-23T06:20:18.346Z,10.63
2024-04-23T06:22:50.356Z,10.65
2024-04-23T06:25:17.944Z,10.82
2024-04-23T06:27:45.110Z,11.20
2024-04-23T06:30:13.925Z,10.77
2024-04-23T06:32:41.585Z,11.18
2024-04-23T06:35:10.409Z,11.48
2024-04-23T06:37:38.707Z,10.80
2024-04-23T06:40:10.140Z,10.88
2024-04-23T06:42:38.457Z,10.50
2024-04-23T06:45:06.204Z,11.43
2024-04-23T06:47:35.279Z,10.88
2024-04-23T06:50:02.674Z,10.90
2024-04-23T06:52:29.882Z,11.20
2024-04-23T06:54:57.614Z,10.27
2024-04-23T06:57:24.743Z,11.18
2024-04-23T06:59:51.794Z,11.60
2024-04-23T07:02:19.133Z,10.70
2024-04-23T07:04:46.312Z,11.18
2024-04-23T07:07:13.375Z,10.80
2024-04-23T07:09:40.380Z,10.02
2024-04-23T07:12:07.686Z,10.63
2024-04-23T07:14:35.854Z,10.48
2024-04-23T07:17:03.009Z,10.45
2024-04-23T07:19:30.094Z,11.07
2024-04-23T07:21:57.148Z,11.52
2024-04-23T07:24:24.158Z,10.57
2024-04-23T07:26:53.260Z,10.70
2024-04-23T07:29:20.306Z,10.07
2024-04-23T07:31:47.445Z,10.43
2024-04-23T07:34:14.563Z,10.68
2024-04-23T07:36:46.046Z,9.35
2024-04-23T07:39:14.598Z,9.98
2024-04-23T07:41:42.325Z,10.77
2024-04-23T07:44:09.515Z,10.68
2024-04-23T07:46:36.914Z,9.98
2024-04-23T07:49:04.040Z,9.95
2024-04-23T07:51:33.705Z,10.77
2024-04-23T07:54:00.931Z,10.90
2024-04-23T07:56:27.995Z,10.00
2024-04-23T07:58:55.147Z,9.63
2024-04-23T08:01:22.199Z,10.18
2024-04-23T08:03:49.261Z,10.10
2024-04-23T08:06:16.324Z,10.60
2024-04-23T08:08:43.392Z,9.73
2024-04-23T08:11:10.704Z,9.55
2024-04-23T08:13:38.281Z,9.50
2024-04-23T08:16:05.736Z,9.73
2024-04-23T08:18:35.039Z,9.80
2024-04-23T08:21:07.013Z,10.60
2024-04-23T08:23:34.494Z,10.30
2024-04-23T08:26:09.583Z,10.50
2024-04-23T08:28:37.351Z,9.93
2024-04-23T08:31:04.579Z,9.93
2024-04-23T08:33:31.684Z,9.60
2024-04-23T08:35:58.747Z,10.13
2024-04-23T08:38:26.852Z,10.43
2024-04-23T08:40:54.732Z,10.40
2024-04-23T08:43:25.431Z,10.30
2024-04-23T08:45:55.864Z,10.52
2024-04-23T08:48:24.297Z,9.73
2024-04-23T08:50:51.799Z,9.43
2024-04-23T08:53:19.660Z,8.93
2024-04-23T08:55:49.240Z,9.32
2024-04-23T08:58:17.662Z,8.50
2024-04-23T09:00:52.990Z,9.02
2024-04-23T09:03:24.663Z,8.10
2024-04-23T09:05:52.203Z,8.15
2024-04-23T09:08:21.830Z,8.48
2024-04-23T09:10:49.442Z,8.10
2024-04-23T09:13:16.554Z,8.70
2024-04-23T09:15:43.676Z,8.25
2024-04-23T09:18:12.399Z,9.18
2024-04-23T09:20:39.986Z,8.75
2024-04-23T09:23:07.127Z,8.10
2024-04-23T09:25:37.671Z,8.18
2024-04-23T09:28:09.823Z,9.10
2024-04-23T09:30:39.636Z,8.38
2024-04-23T09:33:06.973Z,7.80
2024-04-23T09:35:34.096Z,7.75
2024-04-23T09:38:05.753Z,7.80
2024-04-23T09:40:42.243Z,7.50
2024-04-23T09:43:09.415Z,7.72
2024-04-23T09:45:37.181Z,7.68
2024-04-23T09:48:04.898Z,7.60
2024-04-23T09:50:32.153Z,7.43
2024-04-23T09:53:06.698Z,7.75
2024-04-23T09:55:33.749Z,8.00
2024-04-23T09:58:00.790Z,8.68
2024-04-23T10:00:31.462Z,7.63
2024-04-23T10:03:11.969Z,8.15
2024-04-23T10:05:48.035Z,8.00
2024-04-23T10:08:26.252Z,8.32
2024-04-23T10:10:56.340Z,7.93
2024-04-23T10:15:57.938Z,7.20
2024-04-23T10:18:36.172Z,8.25
2024-04-23T10:21:08.072Z,7.30
2024-04-23T10:23:36.815Z,8.32
2024-04-23T10:26:04.588Z,8.50
2024-04-23T10:28:32.416Z,7.72
2024-04-23T10:31:00.317Z,8.20
2024-04-23T10:33:32.284Z,7.97
2024-04-23T10:36:05.303Z,8.27
2024-04-23T10:38:35.012Z,8.50
2024-04-23T10:41:02.871Z,8.75
2024-04-23T10:43:31.887Z,8.70
2024-04-23T10:46:00.180Z,8.70
2024-04-23T10:48:28.732Z,8.82
2024-04-23T10:50:59.855Z,9.00
2024-04-23T10:53:27.082Z,9.48
2024-04-23T10:55:54.219Z,9.20
2024-04-23T10:58:21.775Z,8.30
2024-04-23T11:00:59.184Z,8.45
2024-04-23T11:03:35.781Z,8.35
2024-04-23T11:06:03.457Z,8.63
2024-04-23T11:08:32.816Z,9.45
2024-04-23T11:10:59.954Z,9.55
2024-04-23T11:13:31.355Z,9.27
2024-04-23T11:16:05.493Z,10.25
2024-04-23T11:18:48.318Z,10.10
2024-04-23T11:21:26.261Z,10.00
2024-04-23T11:23:54.156Z,10.00
2024-04-23T11:26:24.447Z,10.32
2024-04-23T11:28:52.066Z,9.70
2024-04-23T11:31:20.704Z,9.43
2024-04-23T11:33:51.610Z,10.25
2024-04-23T11:36:29.110Z,10.05
2024-04-23T11:39:02.206Z,10.20
2024-04-23T11:41:29.565Z,9.70
2024-04-23T11:43:56.598Z,9.05
2024-04-23T11:46:23.879Z,9.25
2024-04-23T11:48:51.995Z,9.35
2024-04-23T11:51:20.175Z,9.70
2024-04-23T11:53:47.457Z,9.60
2024-04-23T11:56:14.803Z,8.80
2024-04-23T11:58:42.267Z,9.48
2024-04-23T12:01:12.251Z,9.57
2024-04-23T12:03:39.910Z,9.93
2024-04-23T12:06:08.091Z,10.85
2024-04-23T12:08:36.404Z,10.75
2024-04-23T12:11:05.670Z,10.60
2024-04-23T12:13:32.839Z,10.53
2024-04-23T12:16:03.661Z,9.57
2024-04-23T12:18:30.821Z,9.73
2024-04-23T12:20:58.082Z,10.25
2024-04-23T12:23:25.684Z,10.02
2024-04-23T12:25:53.816Z,10.45
2024-04-23T12:28:22.521Z,9.60
2024-04-23T12:30:50.729Z,9.55
2024-04-23T12:33:18.079Z,10.50
2024-04-23T12:35:45.445Z,9.80
2024-04-23T12:38:13.941Z,9.73
2024-04-23T12:40:43.663Z,10.15
2024-04-23T12:43:12.004Z,10.05
2024-04-23T12:45:39.489Z,10.43
2024-04-23T12:48:06.877Z,10.10
2024-04-23T12:50:34.200Z,10.10
2024-04-23T12:53:02.108Z,11.00
2024-04-23T12:55:31.473Z,11.82
2024-04-23T12:57:59.548Z,11.10
2024-04-23T13:00:26.806Z,10.48
2024-04-23T13:02:53.947Z,10.77
2024-04-23T13:05:21.129Z,10.93
2024-04-23T13:07:48.293Z,10.70
2024-04-23T13:10:16.701Z,10.70
2024-04-23T13:12:44.199Z,10.52
2024-04-23T13:15:11.827Z,11.48
2024-04-23T13:17:39.018Z,10.95
2024-04-23T13:20:06.556Z,11.23
2024-04-23T13:22:33.714Z,11.13
2024-04-23T13:25:02.778Z,9.93
2024-04-23T13:27:30.014Z,10.85
2024-04-23T13:29:57.069Z,11.43
2024-04-23T13:32:24.328Z,11.05
2024-04-23T13:34:51.492Z,11.15
2024-04-23T13:37:18.541Z,11.45
2024-04-23T13:39:45.573Z,11.40
2024-04-23T13:42:12.646Z,10.98
2024-04-23T13:44:39.794Z,11.43
2024-04-23T13:47:08.071Z,11.60
2024-04-23T13:49:38.358Z,11.23
2024-04-23T13:54:32.340Z,11.13
2024-04-23T13:56:59.387Z,11.88
2024-04-23T13:59:26.651Z,11.93
2024-04-23T14:01:53.893Z,12.30
2024-04-23T14:04:21.078Z,11.90
2024-04-23T14:06:48.827Z,11.43
2024-04-23T14:09:16.028Z,12.65
2024-04-23T14:11:45.562Z,11.73
2024-04-23T14:14:14.202Z,11.90
2024-04-23T14:16:41.286Z,12.10
2024-04-23T14:19:08.353Z,12.43
2024-04-23T14:21:35.466Z,11.55
2024-04-23T14:24:02.471Z,11.95
2024-04-23T14:26:29.486Z,11.77
2024-04-23T14:28:58.017Z,11.90
2024-04-23T14:31:25.179Z,11.88
2024-04-23T14:33:52.271Z,12.10
2024-04-23T14:36:19.280Z,10.88
2024-04-23T14:38:47.507Z,10.95
2024-04-23T14:41:14.758Z,11.45
2024-04-23T14:43:41.982Z,11.18
2024-04-23T14:46:13.652Z,10.93
2024-04-23T14:48:41.018Z,11.27
2024-04-23T14:51:08.745Z,11.85
2024-04-23T14:53:36.169Z,11.77
2024-04-23T14:56:05.460Z,11.95
2024-04-23T14:58:33.816Z,12.47
2024-04-23T15:01:01.017Z,11.35
2024-04-23T15:03:31.254Z,11.70
2024-04-23T15:08:25.969Z,12.07
2024-04-23T15:10:56.880Z,11.73
2024-04-23T15:13:25.976Z,11.10
2024-04-23T15:16:00.390Z,11.43
2024-04-23T15:18:32.160Z,11.60
2024-04-23T15:21:03.743Z,11.63
2024-04-23T15:23:31.863Z,11.68
2024-04-23T15:26:00.541Z,10.73
2024-04-23T15:28:28.345Z,12.05
2024-04-23T15:31:03.554Z,11.02
2024-04-23T15:33:41.915Z,11.25
2024-04-23T15:36:19.725Z,10.70
2024-04-23T15:38:56.529Z,11.73
2024-04-23T15:41:23.540Z,10.80
2024-04-23T15:43:50.673Z,10.93
2024-04-23T15:46:17.911Z,11.23
2024-04-23T15:48:45.146Z,10.90
2024-04-23T15:51:12.397Z,11.10
2024-04-23T15:53:39.606Z,11.13
2024-04-23T15:56:07.518Z,10.65
2024-04-23T15:58:34.828Z,11.38
2024-04-23T16:01:06.395Z,11.05
2024-04-23T16:03:37.950Z,10.32
2024-04-23T16:06:06.259Z,11.00
2024-04-23T16:08:34.105Z,11.15
2024-04-23T16:11:02.941Z,10.88
2024-04-23T16:13:30.420Z,10.88
2024-04-23T16:16:01.232Z,11.10
2024-04-23T16:18:29.448Z,9.98
2024-04-23T16:21:00.692Z,10.82
2024-04-23T16:23:28.593Z,10.85
2024-04-23T16:25:56.868Z,9.65
2024-04-23T16:28:24.376Z,11.43
2024-04-23T16:30:51.402Z,10.63
2024-04-23T16:33:18.608Z,10.63
2024-04-23T16:35:46.442Z,11.15
2024-04-23T16:38:13.596Z,11.93
2024-04-23T16:40:40.776Z,10.48
2024-04-23T16:43:09.349Z,11.25
2024-04-23T16:45:37.455Z,10.93
2024-04-23T16:48:07.597Z,10.75
2024-04-23T16:53:02.186Z,11.63
2024-04-23T16:55:29.618Z,11.02
2024-04-23T16:57:56.677Z,11.13
2024-04-23T17:00:23.806Z,10.93
2024-04-23T17:02:50.922Z,10.90
2024-04-23T17:05:17.988Z,10.75
2024-04-23T17:07:45.091Z,10.70
2024-04-23T17:10:12.114Z,10.30
2024-04-23T17:12:39.172Z,10.70
2024-04-23T17:15:06.571Z,10.52
2024-04-23T17:17:36.730Z,10.30
2024-04-23T17:20:04.918Z,11.18
2024-04-23T17:22:31.989Z,10.25
2024-04-23T17:24:59.058Z,10.82
2024-04-23T17:27:26.101Z,11.75
2024-04-23T17:29:53.116Z,11.63
2024-04-23T17:32:20.246Z,11.75
2024-04-23T17:34:47.346Z,11.60
2024-04-23T17:37:14.390Z,12.38
2024-04-23T17:39:41.599Z,12.55
2024-04-23T17:42:08.640Z,11.85
2024-04-23T17:44:35.617Z,12.02
2024-04-23T17:47:02.697Z,11.23
2024-04-23T17:49:29.716Z,11.75
2024-04-23T17:51:56.728Z,11.50
2024-04-23T17:54:24.628Z,11.30
2024-04-23T17:56:51.648Z,10.68
2024-04-23T17:59:18.944Z,11.85
2024-04-23T18:01:45.944Z,10.98
2024-04-23T18:04:13.005Z,11.43
2024-04-23T18:06:40.075Z,11.70
2024-04-23T18:09:07.102Z,11.50
2024-04-23T18:11:34.925Z,12.35
2024-04-23T18:14:02.019Z,11.20
2024-04-23T18:16:30.015Z,11.45
2024-04-23T18:18:59.858Z,11.57
2024-04-23T18:21:27.181Z,11.30
2024-04-23T18:23:54.442Z,12.77
2024-04-23T18:26:22.826Z,12.65
2024-04-23T18:28:52.017Z,12.02
2024-04-23T18:31:21.535Z,13.50
2024-04-23T18:33:49.671Z,14.60
2024-04-23T18:36:16.664Z,13.32
2024-04-23T18:38:43.676Z,13.40
2024-04-23T18:41:17.096Z,13.75
2024-04-23T18:43:44.332Z,13.00
2024-04-23T18:46:17.346Z,13.88
2024-04-23T18:48:45.364Z,14.80
2024-04-23T18:51:13.856Z,15.70
2024-04-23T18:53:41.586Z,15.52
2024-04-23T18:56:09.963Z,14.25
2024-04-23T18:58:37.829Z,15.55
2024-04-23T19:01:15.499Z,15.35
2024-04-23T19:03:44.209Z,14.68
2024-04-23T19:06:17.389Z,15.15
2024-04-23T19:08:51.317Z,14.85
2024-04-23T19:11:26.906Z,15.20
2024-04-23T19:14:03.842Z,18.17
2024-04-23T19:16:40.655Z,15.50
2024-04-23T19:19:07.733Z,15.87
2024-04-23T19:21:34.903Z,15.48
2024-04-23T19:24:01.903Z,15.77
2024-04-23T19:26:28.910Z,15.23
2024-04-23T19:28:56.055Z,16.75
2024-04-23T19:31:23.320Z,15.52
2024-04-23T19:33:50.461Z,15.30
2024-04-23T19:36:17.535Z,15.73
2024-04-23T19:38:47.818Z,17.25
2024-04-23T19:41:17.356Z,16.73
2024-04-23T19:43:51.842Z,15.48
2024-04-23T19:46:21.624Z,16.70
2024-04-23T19:48:50.420Z,16.50
2024-04-23T19:51:21.524Z,15.07
2024-04-23T19:53:52.178Z,15.73
2024-04-23T19:56:34.577Z,16.95
2024-04-23T19:59:03.746Z,16.45
2024-04-23T20:01:33.451Z,16.83
2024-04-23T20:04:00.654Z,17.08
2024-04-23T20:06:27.740Z,17.00
2024-04-23T20:08:54.745Z,17.27
2024-04-23T20:11:21.802Z,16.80
2024-04-23T20:13:48.987Z,16.77
2024-04-23T20:16:16.053Z,16.98
2024-04-23T20:18:43.230Z,16.73
2024-04-23T20:21:14.005Z,17.38
2024-04-23T20:23:44.361Z,17.77
2024-04-23T20:26:15.324Z,17.00
2024-04-23T20:28:43.207Z,17.40
2024-04-23T20:31:10.365Z,16.73
2024-04-23T20:33:37.490Z,18.45
2024-04-23T20:36:05.408Z,16.50
2024-04-23T20:38:32.398Z,18.73
2024-04-23T20:41:07.942Z,18.08
2024-04-23T20:43:37.467Z,17.17
2024-04-23T20:46:05.821Z,17.88
2024-04-23T20:48:34.234Z,19.27
2024-04-23T20:51:01.312Z,18.92
2024-04-23T20:53:28.428Z,18.10
2024-04-23T20:55:55.520Z,17.17
2024-04-23T20:58:22.544Z,18.27
2024-04-23T21:00:49.887Z,17.83
2024-04-23T21:03:17.245Z,17.98
2024-04-23T21:05:44.343Z,19.00
2024-04-23T21:08:12.524Z,18.17
2024-04-23T21:10:40.102Z,18.17
2024-04-23T21:13:08.550Z,18.92
2024-04-23T21:15:35.638Z,18.08
2024-04-23T21:18:02.984Z,18.23
2024-04-23T21:20:30.094Z,18.50
2024-04-23T21:22:57.268Z,18.63
2024-04-23T21:25:24.581Z,18.02
2024-04-23T21:27:51.605Z,18.17
2024-04-23T21:30:18.650Z,18.60
2024-04-23T21:32:45.869Z,18.30
2024-04-23T21:35:13.295Z,18.33
2024-04-23T21:37:40.332Z,19.55
2024-04-23T21:40:07.921Z,17.35
2024-04-23T21:42:41.089Z,18.83
2024-04-23T21:45:09.691Z,16.63
2024-04-23T21:47:37.143Z,18.80
2024-04-23T21:50:05.159Z,18.42
2024-04-23T21:52:40.065Z,17.40
2024-04-23T21:55:09.838Z,18.70
2024-04-23T21:57:37.172Z,17.77
2024-04-23T22:00:06.013Z,17.08
2024-04-23T22:02:33.313Z,17.77
2024-04-23T22:05:00.442Z,17.50
2024-04-23T22:07:27.550Z,17.23
2024-04-23T22:09:54.571Z,16.67
2024-04-23T22:12:21.562Z,17.70
2024-04-23T22:14:48.913Z,17.05
2024-04-23T22:17:16.053Z,17.27
2024-04-23T22:19:43.146Z,17.60
2024-04-23T22:22:10.189Z,17.38
2024-04-23T22:24:42.472Z,17.40
2024-04-23T22:27:09.865Z,16.08
2024-04-23T22:29:36.914Z,16.70
2024-04-23T22:32:04.133Z,17.90
2024-04-23T22:34:31.200Z,16.65
2024-04-23T22:36:58.219Z,15.52
2024-04-23T22:39:25.209Z,16.52
2024-04-23T22:41:52.197Z,17.15
2024-04-23T22:44:19.456Z,16.40
2024-04-23T22:46:46.552Z,15.80
2024-04-23T22:49:13.577Z,16.20
2024-04-23T22:51:43.105Z,16.98
2024-04-23T22:54:10.232Z,16.60
2024-04-23T22:56:37.230Z,17.10
2024-04-23T22:59:04.273Z,17.15
2024-04-23T23:01:31.994Z,16.40
2024-04-23T23:03:59.562Z,17.25
2024-04-23T23:06:26.673Z,17.02
2024-04-23T23:08:53.658Z,17.42
2024-04-23T23:11:20.809Z,17.25
2024-04-23T23:13:47.858Z,17.77
2024-04-23T23:16:14.939Z,16.80
2024-04-23T23:18:41.961Z,17.27
2024-04-23T23:21:08.976Z,16.15
2024-04-23T23:23:36.040Z,16.73
2024-04-23T23:26:03.269Z,17.33
2024-04-23T23:28:30.295Z,17.38
2024-04-23T23:30:57.397Z,16.55
2024-04-23T23:33:24.746Z,16.95
2024-04-23T23:35:51.868Z,16.63
2024-04-23T23:38:18.947Z,17.20
2024-04-23T23:40:46.091Z,17.17
2024-04-23T23:43:14.941Z,16.48
2024-04-23T23:45:41.966Z,16.95
2024-04-23T23:48:09.207Z,16.33
2024-04-23T23:50:36.470Z,17.90
2024-04-23T23:53:03.762Z,17.92
2024-04-23T23:55:30.868Z,16.88
2024-04-23T23:57:57.919Z,16.25
